createdAt,value
2018-02-27T00:02:18.784Z,41.37
2018-02-27T00:04:46.144Z,42.83
2018-02-27T00:07:12.783Z,40.95
2018-02-27T00:09:39.470Z,41.95
2018-02-27T00:12:06.087Z,44.70
2018-02-27T00:14:32.678Z,49.35
2018-02-27T00:16:59.251Z,42.90
2018-02-27T00:19:26.645Z,64.35
2018-02-27T00:21:53.249Z,40.58
2018-02-27T00:24:20.574Z,43.13
2018-02-27T00:26:47.133Z,41.25
2018-02-27T00:29:14.441Z,49.47
2018-02-27T00:31:41.815Z,53.03
2018-02-27T00:34:08.382Z,39.75
2018-02-27T00:36:34.922Z,33.45
2018-02-27T00:39:01.563Z,20.77
2018-02-27T00:41:28.262Z,19.02
2018-02-27T00:43:54.816Z,24.33
2018-02-27T00:46:22.101Z,28.80
2018-02-27T00:48:48.716Z,38.58
2018-02-27T00:51:15.242Z,33.80
2018-02-27T00:53:42.544Z,39.00
2018-02-27T00:56:09.251Z,10.57
2018-02-27T00:58:35.821Z,28.80
2018-02-27T01:01:02.434Z,35.85
2018-02-27T01:03:29.054Z,15.30
2018-02-27T01:05:55.625Z,25.92
2018-02-27T01:08:22.206Z,21.17
2018-02-27T01:10:48.777Z,22.33
2018-02-27T01:13:15.317Z,34.63
2018-02-27T01:15:41.906Z,35.35
2018-02-27T01:18:08.479Z,29.12
2018-02-27T01:20:35.773Z,37.70
2018-02-27T01:23:02.561Z,39.78
2018-02-27T01:25:29.193Z,36.33
2018-02-27T01:27:56.518Z,29.95
2018-02-27T01:30:23.074Z,27.62
2018-02-27T01:32:49.770Z,46.47
2018-02-27T01:35:16.296Z,30.30
2018-02-27T01:37:42.870Z,35.83
2018-02-27T01:40:09.417Z,39.38
2018-02-27T01:42:35.953Z,35.08
2018-02-27T01:45:03.286Z,36.83
2018-02-27T01:47:29.831Z,35.08
2018-02-27T01:49:57.130Z,37.90
2018-02-27T01:52:23.713Z,26.77
2018-02-27T01:54:50.314Z,27.02
2018-02-27T01:57:16.901Z,26.85
2018-02-27T01:59:43.493Z,23.75
2018-02-27T02:02:10.050Z,23.38
2018-02-27T02:04:36.655Z,29.42
2018-02-27T02:07:03.209Z,19.23
2018-02-27T02:09:29.814Z,12.93
2018-02-27T02:11:56.418Z,20.88
2018-02-27T02:14:23.933Z,24.02
2018-02-27T02:16:50.543Z,20.80
2018-02-27T02:19:17.907Z,22.35
2018-02-27T02:21:44.494Z,36.50
2018-02-27T02:24:11.076Z,24.92
2018-02-27T02:26:37.675Z,35.83
2018-02-27T02:29:04.251Z,37.08
2018-02-27T02:31:30.818Z,34.80
2018-02-27T02:33:57.384Z,29.70
2018-02-27T02:36:23.954Z,30.95
2018-02-27T02:38:51.258Z,32.38
2018-02-27T02:41:17.818Z,32.55
2018-02-27T02:43:45.117Z,31.33
2018-02-27T02:46:11.734Z,34.38
2018-02-27T02:48:38.294Z,24.67
2018-02-27T02:51:04.870Z,36.05
2018-02-27T02:53:32.191Z,32.53
2018-02-27T02:55:58.781Z,34.63
2018-02-27T02:58:26.072Z,33.60
2018-02-27T03:00:52.703Z,32.13
2018-02-27T03:03:19.298Z,33.50
2018-02-27T03:05:46.606Z,24.50
2018-02-27T03:08:13.177Z,26.90
2018-02-27T03:10:40.499Z,27.75
2018-02-27T03:13:07.062Z,25.95
2018-02-27T03:15:33.650Z,38.17
2018-02-27T03:18:00.235Z,27.17
2018-02-27T03:20:26.791Z,24.23
2018-02-27T03:22:53.332Z,25.50
2018-02-27T03:25:19.927Z,24.58
2018-02-27T03:27:46.478Z,27.80
2018-02-27T03:30:13.055Z,20.52
2018-02-27T03:32:40.334Z,25.42
2018-02-27T03:35:06.938Z,31.58
2018-02-27T03:37:34.240Z,33.13
2018-02-27T03:40:00.798Z,28.85
2018-02-27T03:42:27.415Z,31.12
2018-02-27T03:44:53.978Z,29.65
2018-02-27T03:47:20.526Z,31.27
2018-02-27T03:49:47.889Z,31.65
2018-02-27T03:52:14.446Z,24.12
2018-02-27T03:54:41.028Z,30.92
2018-02-27T03:57:07.610Z,31.08
2018-02-27T03:59:34.145Z,27.52
2018-02-27T04:02:00.723Z,26.83
2018-02-27T04:04:27.287Z,33.42
2018-02-27T04:06:53.862Z,32.67
2018-02-27T04:09:20.386Z,30.75
2018-02-27T04:11:47.782Z,35.05
2018-02-27T04:14:14.366Z,27.42
2018-02-27T04:16:41.709Z,34.20
2018-02-27T04:19:08.325Z,36.53
2018-02-27T04:21:34.935Z,35.85
2018-02-27T04:24:01.576Z,37.55
2018-02-27T04:26:28.162Z,40.88
2018-02-27T04:28:55.443Z,38.42
2018-02-27T04:31:21.998Z,39.20
2018-02-27T04:33:48.594Z,39.65
2018-02-27T04:36:15.174Z,7.95
2018-02-27T04:38:41.742Z,28.20
2018-02-27T04:41:08.317Z,32.33
2018-02-27T04:43:34.859Z,28.08
2018-02-27T04:46:01.504Z,35.92
2018-02-27T04:48:28.058Z,37.15
2018-02-27T04:50:54.652Z,27.55
2018-02-27T04:53:21.238Z,36.50
2018-02-27T04:55:48.551Z,40.53
2018-02-27T04:58:15.149Z,31.60
2018-02-27T05:00:41.695Z,44.22
2018-02-27T05:03:09.068Z,41.53
2018-02-27T05:05:36.449Z,34.17
2018-02-27T05:08:03.037Z,26.73
2018-02-27T05:10:29.616Z,13.90
2018-02-27T05:12:56.174Z,24.55
2018-02-27T05:15:22.740Z,36.22
2018-02-27T05:17:49.286Z,17.00
2018-02-27T05:20:15.850Z,33.47
2018-02-27T05:22:42.411Z,44.55
2018-02-27T05:25:08.999Z,27.75
2018-02-27T05:27:36.322Z,29.65
2018-02-27T05:30:02.927Z,34.38
2018-02-27T05:32:29.594Z,34.10
2018-02-27T05:34:56.165Z,32.90
2018-02-27T05:37:23.555Z,32.67
2018-02-27T05:39:50.106Z,37.78
2018-02-27T05:42:17.310Z,34.60
2018-02-27T05:44:44.614Z,29.60
2018-02-27T05:47:11.183Z,34.53
2018-02-27T05:49:37.739Z,27.17
2018-02-27T05:52:05.054Z,28.45
2018-02-27T05:54:31.691Z,29.05
2018-02-27T05:56:58.328Z,26.08
2018-02-27T05:59:25.000Z,19.33
2018-02-27T06:01:52.303Z,29.02
2018-02-27T06:04:19.126Z,28.27
2018-02-27T06:06:45.690Z,30.77
2018-02-27T06:09:12.262Z,38.90
2018-02-27T06:11:38.872Z,31.25
2018-02-27T06:14:05.413Z,37.13
2018-02-27T06:16:31.998Z,37.95
2018-02-27T06:18:58.552Z,29.48
2018-02-27T06:21:25.154Z,38.20
2018-02-27T06:23:52.433Z,29.50
2018-02-27T06:26:19.035Z,35.42
2018-02-27T06:28:45.626Z,35.40
2018-02-27T06:31:12.194Z,37.72
2018-02-27T06:33:38.786Z,38.70
2018-02-27T06:36:05.331Z,34.92
2018-02-27T06:38:32.674Z,16.52
2018-02-27T06:40:59.234Z,26.25
2018-02-27T06:43:26.516Z,36.33
2018-02-27T06:45:53.126Z,36.70
2018-02-27T06:48:19.689Z,27.87
2018-02-27T06:50:47.164Z,17.60
2018-02-27T06:53:13.745Z,29.48
2018-02-27T06:55:40.586Z,30.75
2018-02-27T06:58:07.139Z,30.62
2018-02-27T07:00:33.699Z,40.53
2018-02-27T07:03:00.270Z,32.85
2018-02-27T07:05:26.832Z,36.78
2018-02-27T07:07:53.434Z,44.50
2018-02-27T07:10:20.002Z,30.05
2018-02-27T07:12:46.943Z,26.48
2018-02-27T07:15:14.302Z,59.38
2018-02-27T07:17:40.910Z,36.08
2018-02-27T07:20:07.497Z,56.53
2018-02-27T07:22:34.075Z,18.27
2018-02-27T07:25:00.653Z,51.10
2018-02-27T07:27:27.203Z,35.55
2018-02-27T07:29:53.781Z,37.40
2018-02-27T07:32:21.111Z,22.42
2018-02-27T07:34:47.694Z,32.28
2018-02-27T07:37:14.267Z,39.05
2018-02-27T07:39:40.937Z,32.60
2018-02-27T07:42:08.227Z,31.50
2018-02-27T07:44:34.835Z,48.70
2018-02-27T07:47:02.148Z,49.42
2018-02-27T07:49:28.730Z,38.58
2018-02-27T07:51:55.707Z,27.13
2018-02-27T07:54:22.357Z,47.90
2018-02-27T07:56:48.982Z,47.15
2018-02-27T07:59:15.658Z,51.83
2018-02-27T08:01:42.975Z,26.60
2018-02-27T08:04:09.646Z,38.08
2018-02-27T08:06:36.204Z,39.42
2018-02-27T08:09:03.593Z,40.12
2018-02-27T08:11:30.187Z,46.78
2018-02-27T08:13:57.077Z,45.97
2018-02-27T08:16:23.666Z,53.70
2018-02-27T08:18:50.210Z,48.42
2018-02-27T08:21:17.566Z,48.78
2018-02-27T08:23:44.173Z,51.50
2018-02-27T08:26:10.770Z,55.72
2018-02-27T08:28:37.336Z,54.28
2018-02-27T08:31:04.669Z,56.05
2018-02-27T08:33:32.110Z,54.55
2018-02-27T08:35:58.662Z,56.40
2018-02-27T08:38:25.210Z,58.20
2018-02-27T08:40:51.790Z,60.05
2018-02-27T08:43:19.186Z,58.58
2018-02-27T08:45:45.759Z,57.80
2018-02-27T08:48:12.334Z,57.62
2018-02-27T08:50:38.898Z,62.10
2018-02-27T08:53:05.738Z,63.95
2018-02-27T08:55:32.278Z,62.03
2018-02-27T08:57:58.955Z,61.03
2018-02-27T09:00:25.535Z,64.95
2018-02-27T09:02:52.138Z,64.37
2018-02-27T09:05:18.678Z,63.33
2018-02-27T09:07:45.974Z,60.78
2018-02-27T09:10:12.554Z,66.72
2018-02-27T09:12:39.179Z,67.20
2018-02-27T09:15:05.817Z,63.30
2018-02-27T09:17:32.386Z,67.75
2018-02-27T09:19:59.702Z,69.05
2018-02-27T09:22:26.281Z,66.93
2018-02-27T09:24:52.878Z,67.53
2018-02-27T09:27:19.501Z,71.87
2018-02-27T09:29:46.083Z,32.08
2018-02-27T09:32:13.314Z,39.33
2018-02-27T09:34:39.824Z,49.80
2018-02-27T09:37:07.351Z,52.45
2018-02-27T09:39:33.856Z,53.00
2018-02-27T09:42:01.124Z,53.15
2018-02-27T09:44:28.373Z,55.28
2018-02-27T09:46:55.644Z,53.28
2018-02-27T09:49:22.168Z,12.85
2018-02-27T09:51:48.772Z,12.77
2018-02-27T09:54:15.284Z,13.62
2018-02-27T09:56:41.808Z,13.88
2018-02-27T09:59:08.312Z,13.25
2018-02-27T10:01:35.152Z,13.00
2018-02-27T10:04:01.737Z,13.73
2018-02-27T10:06:28.272Z,12.05
2018-02-27T10:08:54.839Z,13.43
2018-02-27T10:11:21.351Z,13.70
2018-02-27T10:13:47.862Z,18.33
2018-02-27T10:16:14.430Z,15.32
2018-02-27T10:18:40.940Z,14.65
2018-02-27T10:21:07.740Z,14.32
2018-02-27T10:23:34.260Z,13.40
2018-02-27T10:26:01.513Z,12.23
2018-02-27T10:28:28.801Z,11.68
2018-02-27T10:30:55.324Z,12.63
2018-02-27T10:33:21.838Z,13.40
2018-02-27T10:35:49.111Z,12.13
2018-02-27T10:38:15.619Z,13.23
2018-02-27T10:40:42.234Z,12.25
2018-02-27T10:43:08.751Z,14.60
2018-02-27T10:45:35.385Z,13.13
2018-02-27T10:48:01.974Z,14.02
2018-02-27T10:50:28.487Z,12.45
2018-02-27T10:52:55.046Z,14.70
2018-02-27T10:55:22.293Z,14.13
2018-02-27T10:57:50.254Z,14.48
2018-02-27T11:13:38.040Z,13.95
2018-02-27T11:16:05.323Z,10.27
2018-02-27T11:18:32.580Z,14.00
2018-02-27T11:20:59.114Z,12.80
2018-02-27T11:23:26.412Z,12.65
2018-02-27T11:25:53.001Z,12.40
2018-02-27T11:28:20.275Z,13.13
2018-02-27T11:30:46.793Z,11.20
2018-02-27T11:33:13.324Z,12.25
2018-02-27T11:35:40.648Z,13.20
2018-02-27T11:38:07.296Z,14.73
2018-02-27T11:40:33.860Z,11.25
2018-02-27T11:43:01.156Z,12.95
2018-02-27T11:45:27.673Z,13.55
2018-02-27T11:47:54.220Z,14.90
2018-02-27T11:50:20.767Z,13.32
2018-02-27T11:52:47.337Z,12.65
2018-02-27T11:55:13.850Z,13.45
2018-02-27T11:57:40.398Z,17.10
2018-02-27T12:00:07.032Z,13.55
2018-02-27T12:02:33.605Z,11.15
2018-02-27T12:05:00.856Z,14.00
2018-02-27T12:07:28.201Z,12.88
2018-02-27T12:09:54.744Z,13.15
2018-02-27T12:12:22.032Z,11.80
2018-02-27T12:14:48.544Z,14.32
2018-02-27T12:17:15.868Z,14.63
2018-02-27T12:19:42.411Z,13.95
2018-02-27T12:22:09.666Z,13.52
2018-02-27T12:24:37.731Z,15.35
2018-02-27T12:27:04.996Z,12.90
2018-02-27T12:29:32.239Z,13.38
2018-02-27T12:31:59.049Z,12.88
2018-02-27T12:34:26.304Z,14.50
2018-02-27T12:36:52.869Z,12.98
2018-02-27T12:39:20.152Z,12.55
2018-02-27T12:41:46.693Z,11.02
2018-02-27T12:44:13.227Z,11.75
2018-02-27T12:46:39.742Z,10.73
2018-02-27T12:49:06.274Z,12.00
2018-02-27T12:51:33.548Z,12.68
2018-02-27T12:54:00.118Z,9.43
2018-02-27T12:56:27.423Z,11.43
2018-02-27T12:58:54.713Z,12.55
2018-02-27T13:01:21.219Z,12.02
2018-02-27T13:03:47.737Z,11.07
2018-02-27T13:06:14.292Z,12.85
2018-02-27T13:08:40.850Z,11.02
2018-02-27T13:11:07.408Z,13.02
2018-02-27T13:13:34.689Z,12.45
2018-02-27T13:16:02.275Z,12.48
2018-02-27T13:18:28.782Z,12.27
2018-02-27T13:20:56.082Z,12.52
2018-02-27T13:23:22.739Z,12.93
2018-02-27T13:25:50.039Z,13.75
2018-02-27T13:28:17.259Z,13.27
2018-02-27T13:30:44.098Z,11.82
2018-02-27T13:33:11.377Z,9.57
2018-02-27T13:35:37.967Z,14.05
2018-02-27T13:38:04.523Z,11.65
2018-02-27T13:40:31.045Z,12.57
2018-02-27T13:42:57.636Z,13.98
2018-02-27T13:45:24.157Z,12.05
2018-02-27T13:47:50.692Z,12.48
2018-02-27T13:50:17.214Z,10.55
2018-02-27T13:52:44.488Z,11.52
2018-02-27T13:55:11.724Z,13.45
2018-02-27T13:57:39.007Z,10.27
2018-02-27T14:00:05.508Z,14.02
2018-02-27T14:02:32.794Z,13.18
2018-02-27T14:04:59.356Z,10.60
2018-02-27T14:07:25.899Z,13.02
2018-02-27T14:09:52.440Z,13.00
2018-02-27T14:12:18.956Z,13.45
2018-02-27T14:14:45.512Z,11.27
2018-02-27T14:17:12.044Z,11.82
2018-02-27T14:19:38.532Z,12.50
2018-02-27T14:22:05.087Z,13.52
2018-02-27T14:24:31.624Z,10.82
2018-02-27T14:26:58.140Z,10.60
2018-02-27T14:29:24.694Z,12.75
2018-02-27T14:31:51.263Z,11.80
2018-02-27T14:34:18.616Z,11.88
2018-02-27T14:36:45.191Z,11.63
2018-02-27T14:39:11.709Z,12.20
2018-02-27T14:41:39.004Z,11.10
2018-02-27T14:44:05.613Z,11.55
2018-02-27T14:46:32.488Z,12.60
2018-02-27T14:48:59.013Z,12.85
2018-02-27T14:51:25.544Z,12.68
2018-02-27T14:53:52.069Z,10.98
2018-02-27T14:56:19.372Z,10.15
2018-02-27T14:58:46.638Z,12.15
2018-02-27T15:01:13.964Z,13.32
2018-02-27T15:03:40.502Z,11.15
2018-02-27T15:06:07.777Z,15.45
2018-02-27T15:08:35.104Z,11.45
2018-02-27T15:11:02.453Z,12.00
2018-02-27T15:13:28.965Z,17.00
2018-02-27T15:15:56.241Z,12.63
2018-02-27T15:18:22.745Z,12.73
2018-02-27T15:20:49.266Z,13.07
2018-02-27T15:23:17.518Z,13.73
2018-02-27T15:25:44.120Z,12.13
2018-02-27T15:28:10.688Z,11.60
2018-02-27T15:30:37.957Z,12.90
2018-02-27T15:33:04.940Z,12.60
2018-02-27T15:35:31.441Z,10.30
2018-02-27T15:37:57.953Z,11.80
2018-02-27T15:40:24.488Z,10.25
2018-02-27T15:42:51.735Z,12.48
2018-02-27T15:45:18.271Z,14.32
2018-02-27T15:47:44.812Z,12.25
2018-02-27T15:50:11.313Z,11.57
2018-02-27T15:52:37.893Z,13.10
2018-02-27T15:55:04.457Z,12.95
2018-02-27T15:57:31.730Z,14.60
2018-02-27T15:59:58.304Z,10.82
2018-02-27T16:02:24.822Z,13.32
2018-02-27T16:04:51.476Z,11.65
2018-02-27T16:07:18.105Z,11.38
2018-02-27T16:09:44.712Z,13.13
2018-02-27T16:12:11.260Z,11.68
2018-02-27T16:14:37.782Z,10.45
2018-02-27T16:17:04.298Z,10.85
2018-02-27T16:19:31.146Z,15.98
2018-02-27T16:21:57.747Z,15.32
2018-02-27T16:24:24.279Z,15.00
2018-02-27T16:26:50.907Z,14.73
2018-02-27T16:29:17.473Z,15.50
2018-02-27T16:31:44.774Z,17.40
2018-02-27T16:34:11.277Z,17.20
2018-02-27T16:36:37.853Z,15.52
2018-02-27T16:39:05.176Z,18.37
2018-02-27T16:41:32.232Z,15.82
2018-02-27T16:43:58.784Z,20.83
2018-02-27T16:46:25.283Z,24.70
2018-02-27T16:48:51.833Z,18.08
2018-02-27T16:51:18.571Z,22.58
2018-02-27T16:53:45.123Z,20.15
2018-02-27T16:56:11.652Z,22.87
2018-02-27T16:58:38.177Z,23.23
2018-02-27T17:01:04.739Z,27.35
2018-02-27T17:03:31.645Z,24.98
2018-02-27T17:05:58.934Z,20.35
2018-02-27T17:08:25.490Z,37.55
2018-02-27T17:10:53.070Z,27.60
2018-02-27T17:13:20.433Z,31.42
2018-02-27T17:15:47.776Z,33.65
2018-02-27T17:18:15.093Z,34.53
2018-02-27T17:20:41.729Z,31.83
2018-02-27T17:23:08.322Z,38.53
2018-02-27T17:25:34.966Z,41.30
2018-02-27T17:28:01.560Z,43.08
2018-02-27T17:30:28.946Z,48.83
2018-02-27T17:32:55.577Z,43.28
2018-02-27T17:35:22.935Z,49.45
2018-02-27T17:37:50.330Z,40.33
2018-02-27T17:40:16.899Z,38.70
2018-02-27T17:42:43.454Z,40.67
2018-02-27T17:45:10.780Z,40.33
2018-02-27T17:47:37.389Z,42.55
2018-02-27T17:50:03.992Z,55.70
2018-02-27T17:52:30.631Z,44.13
2018-02-27T17:54:57.332Z,42.58
2018-02-27T17:57:24.314Z,43.38
2018-02-27T17:59:50.886Z,44.10
2018-02-27T18:02:17.624Z,41.40
2018-02-27T18:04:44.226Z,39.25
2018-02-27T18:07:11.592Z,39.08
2018-02-27T18:09:38.175Z,43.55
2018-02-27T18:12:04.758Z,44.17
2018-02-27T18:14:32.074Z,43.05
2018-02-27T18:16:58.697Z,39.78
2018-02-27T18:19:25.303Z,41.63
2018-02-27T18:21:51.895Z,46.08
2018-02-27T18:24:18.492Z,48.87
2018-02-27T18:26:45.103Z,52.70
2018-02-27T18:29:11.767Z,51.17
2018-02-27T18:31:38.329Z,49.30
2018-02-27T18:34:05.641Z,53.65
2018-02-27T18:36:32.230Z,51.90
2018-02-27T18:38:59.295Z,50.67
2018-02-27T18:41:26.636Z,56.80
2018-02-27T18:43:54.120Z,53.20
2018-02-27T18:46:20.595Z,54.65
2018-02-27T18:48:47.189Z,53.95
2018-02-27T18:51:13.806Z,55.60
2018-02-27T18:53:41.242Z,40.40
2018-02-27T18:56:08.044Z,59.13
2018-02-27T18:58:34.658Z,57.78
2018-02-27T19:01:02.016Z,42.97
2018-02-27T19:03:28.726Z,57.60
2018-02-27T19:05:55.332Z,60.00
2018-02-27T19:08:21.934Z,62.17
2018-02-27T19:10:48.555Z,60.65
2018-02-27T19:13:15.902Z,67.10
2018-02-27T19:15:43.237Z,69.47
2018-02-27T19:18:09.798Z,64.35
2018-02-27T19:20:37.106Z,46.53
2018-02-27T19:23:03.743Z,61.30
2018-02-27T19:25:30.340Z,50.95
2018-02-27T19:27:56.949Z,50.40
2018-02-27T19:30:23.511Z,63.08
2018-02-27T19:32:50.110Z,44.90
2018-02-27T19:35:17.427Z,53.20
2018-02-27T19:37:44.059Z,28.20
2018-02-27T19:40:10.754Z,41.28
2018-02-27T19:42:38.124Z,46.45
2018-02-27T19:45:04.791Z,25.23
2018-02-27T19:47:31.372Z,24.60
2018-02-27T19:49:58.748Z,26.98
2018-02-27T19:52:26.051Z,52.35
2018-02-27T19:54:52.693Z,49.47
2018-02-27T19:57:19.267Z,26.00
2018-02-27T19:59:46.634Z,18.95
2018-02-27T20:02:13.248Z,12.75
2018-02-27T20:04:39.829Z,7.30
2018-02-27T20:07:06.445Z,14.60
2018-02-27T20:09:33.045Z,28.45
2018-02-27T20:11:59.655Z,21.15
2018-02-27T20:14:30.297Z,26.10
2018-02-27T20:16:56.911Z,81.20
2018-02-27T20:19:23.539Z,34.58
2018-02-27T20:21:50.198Z,17.70
2018-02-27T20:24:18.550Z,8.93
2018-02-27T20:26:45.152Z,52.47
2018-02-27T20:29:18.787Z,34.97
2018-02-27T20:31:45.393Z,45.03
2018-02-27T20:34:14.412Z,33.50
2018-02-27T20:36:41.040Z,24.90
2018-02-27T20:39:14.598Z,27.55
2018-02-27T20:41:41.185Z,54.50
2018-02-27T20:44:08.497Z,23.12
2018-02-27T20:46:35.172Z,26.00
2018-02-27T20:49:03.456Z,39.92
2018-02-27T20:51:30.126Z,15.02
2018-02-27T20:53:56.735Z,10.52
2018-02-27T20:56:23.303Z,40.58
2018-02-27T20:58:49.839Z,11.98
2018-02-27T21:01:16.544Z,20.45
2018-02-27T21:03:43.112Z,21.00
2018-02-27T21:06:09.762Z,50.05
2018-02-27T21:08:37.058Z,14.98
2018-02-27T21:11:04.392Z,27.08
2018-02-27T21:13:31.013Z,22.02
2018-02-27T21:15:59.079Z,21.65
2018-02-27T21:18:25.830Z,21.87
2018-02-27T21:20:52.448Z,67.25
2018-02-27T21:23:19.028Z,50.80
2018-02-27T21:25:45.582Z,17.05
2018-02-27T21:28:12.189Z,98.00
2018-02-27T21:30:39.534Z,60.60
2018-02-27T21:33:06.150Z,11.43
2018-02-27T21:35:32.715Z,13.40
2018-02-27T21:38:00.071Z,8.80
2018-02-27T21:40:26.635Z,11.20
2018-02-27T21:42:53.931Z,8.43
2018-02-27T21:45:20.527Z,20.17
2018-02-27T21:47:47.094Z,7.30
2018-02-27T21:50:13.677Z,10.43
2018-02-27T21:52:40.244Z,16.37
2018-02-27T21:55:06.832Z,6.95
2018-02-27T21:57:33.409Z,6.53
2018-02-27T22:00:00.773Z,44.05
2018-02-27T22:02:27.403Z,51.37
2018-02-27T22:04:54.014Z,12.25
2018-02-27T22:07:20.599Z,11.30
2018-02-27T22:09:47.153Z,20.60
2018-02-27T22:12:13.738Z,6.03
2018-02-27T22:14:41.042Z,11.48
2018-02-27T22:17:07.607Z,11.40
2018-02-27T22:19:34.933Z,23.12
2018-02-27T22:22:01.487Z,9.82
2018-02-27T22:24:28.832Z,17.08
2018-02-27T22:26:55.412Z,7.10
2018-02-27T22:29:22.750Z,15.75
2018-02-27T22:31:49.633Z,3.85
2018-02-27T22:34:16.234Z,15.32
2018-02-27T22:36:43.570Z,10.55
2018-02-27T22:39:10.244Z,16.37
2018-02-27T22:41:36.833Z,4.80
2018-02-27T22:44:03.430Z,7.80
2018-02-27T22:46:30.066Z,10.27
2018-02-27T22:48:56.636Z,5.05
2018-02-27T22:51:23.244Z,8.15
2018-02-27T22:53:49.790Z,11.02
2018-02-27T22:56:16.386Z,7.35
2018-02-27T22:58:42.992Z,6.32
2018-02-27T23:01:09.610Z,6.18
2018-02-27T23:03:36.235Z,7.50
2018-02-27T23:06:02.893Z,11.73
2018-02-27T23:08:29.571Z,4.72
2018-02-27T23:10:56.903Z,12.90
2018-02-27T23:13:23.505Z,8.73
2018-02-27T23:15:50.103Z,6.10
2018-02-27T23:18:17.441Z,10.30
2018-02-27T23:20:43.997Z,6.95
2018-02-27T23:23:10.657Z,5.70
2018-02-27T23:25:38.355Z,7.35
2018-02-27T23:28:07.653Z,4.87
2018-02-27T23:30:37.438Z,8.07
2018-02-27T23:33:06.699Z,7.87
2018-02-27T23:35:34.463Z,7.12
2018-02-27T23:38:01.751Z,8.90
2018-02-27T23:40:28.327Z,12.00
2018-02-27T23:42:55.021Z,10.38
2018-02-27T23:45:21.614Z,9.98
2018-02-27T23:47:48.157Z,6.85
2018-02-27T23:50:15.501Z,10.90
2018-02-27T23:52:42.051Z,7.18
2018-02-27T23:55:09.440Z,21.20
2018-02-27T23:57:35.993Z,23.77
